createdAt,value
2023-01-07T00:00:03.228Z,3.00
2023-01-07T00:00:26.129Z,3.00
2023-01-07T00:00:49.181Z,3.00
2023-01-07T00:01:13.674Z,3.00
2023-01-07T00:01:37.371Z,3.00
2023-01-07T00:02:00.129Z,3.00
2023-01-07T00:02:23.015Z,3.00
2023-01-07T00:02:45.851Z,3.00
2023-01-07T00:03:08.748Z,3.00
2023-01-07T00:03:31.680Z,3.00
2023-01-07T00:03:54.763Z,3.00
2023-01-07T00:04:19.734Z,2.90
2023-01-07T00:04:42.593Z,3.00
2023-01-07T00:05:05.944Z,3.00
2023-01-07T00:05:28.835Z,2.90
2023-01-07T00:05:51.551Z,2.90
2023-01-07T00:06:15.770Z,3.00
2023-01-07T00:06:40.090Z,3.00
2023-01-07T00:07:02.845Z,3.00
2023-01-07T00:07:25.863Z,3.00
2023-01-07T00:07:48.883Z,3.00
2023-01-07T00:08:12.321Z,3.00
2023-01-07T00:08:36.176Z,3.00
2023-01-07T00:08:58.976Z,3.00
2023-01-07T00:09:21.878Z,3.00
2023-01-07T00:09:44.663Z,3.00
2023-01-07T00:10:08.167Z,3.00
2023-01-07T00:10:30.889Z,3.00
2023-01-07T00:10:56.769Z,3.10
2023-01-07T00:11:20.304Z,3.00
2023-01-07T00:11:43.146Z,3.10
2023-01-07T00:12:06.071Z,3.10
2023-01-07T00:12:28.811Z,3.00
2023-01-07T00:12:51.680Z,3.10
2023-01-07T00:13:14.427Z,3.00
2023-01-07T00:13:37.602Z,3.10
2023-01-07T00:14:00.679Z,3.10
2023-01-07T00:14:23.501Z,3.10
2023-01-07T00:14:46.261Z,3.10
2023-01-07T00:15:10.148Z,3.00
2023-01-07T00:15:33.011Z,3.10
2023-01-07T00:15:58.598Z,3.10
2023-01-07T00:16:22.876Z,3.10
2023-01-07T00:16:45.620Z,3.10
2023-01-07T00:17:08.462Z,3.10
2023-01-07T00:17:33.421Z,3.10
2023-01-07T00:17:56.402Z,3.10
2023-01-07T00:18:19.187Z,3.10
2023-01-07T00:18:42.058Z,3.10
2023-01-07T00:19:06.302Z,3.10
2023-01-07T00:19:30.484Z,3.10
2023-01-07T00:19:53.191Z,3.10
2023-01-07T00:20:16.071Z,3.00
2023-01-07T00:20:38.763Z,3.00
2023-01-07T00:21:02.726Z,3.00
2023-01-07T00:21:26.469Z,3.00
2023-01-07T00:21:49.213Z,2.90
2023-01-07T00:22:12.027Z,2.90
2023-01-07T00:22:34.841Z,2.90
2023-01-07T00:22:57.734Z,2.90
2023-01-07T00:23:21.849Z,2.80
2023-01-07T00:23:45.473Z,2.90
2023-01-07T00:24:09.456Z,2.90
2023-01-07T00:24:32.188Z,2.80
2023-01-07T00:24:54.956Z,2.80
2023-01-07T00:25:17.770Z,2.80
2023-01-07T00:25:40.609Z,2.80
2023-01-07T00:26:05.375Z,2.80
2023-01-07T00:26:30.158Z,2.80
2023-01-07T00:26:52.982Z,2.80
2023-01-07T00:27:15.708Z,2.80
2023-01-07T00:27:38.549Z,2.80
2023-01-07T00:28:01.771Z,2.80
2023-01-07T00:28:24.569Z,2.80
2023-01-07T00:28:50.507Z,2.80
2023-01-07T00:29:13.301Z,2.80
2023-01-07T00:29:36.182Z,2.80
2023-01-07T00:29:59.125Z,2.80
2023-01-07T00:30:21.890Z,2.80
2023-01-07T00:30:44.919Z,2.80
2023-01-07T00:31:09.545Z,2.90
2023-01-07T00:31:33.775Z,2.90
2023-01-07T00:31:57.315Z,2.90
2023-01-07T00:32:20.670Z,2.80
2023-01-07T00:33:02.373Z,2.80
2023-01-07T00:33:28.503Z,2.80
2023-01-07T00:34:07.254Z,2.80
2023-01-07T00:34:32.196Z,2.80
2023-01-07T00:34:54.972Z,2.80
2023-01-07T00:35:23.977Z,2.80
2023-01-07T00:35:46.741Z,2.80
2023-01-07T00:36:11.001Z,2.80
2023-01-07T00:36:35.203Z,2.80
2023-01-07T00:37:17.960Z,2.70
2023-01-07T00:37:49.960Z,2.70
2023-01-07T00:38:12.897Z,2.70
2023-01-07T00:38:35.691Z,2.60
2023-01-07T00:38:59.619Z,2.70
2023-01-07T00:39:22.329Z,2.70
2023-01-07T00:39:45.136Z,2.70
2023-01-07T00:40:10.106Z,2.60
2023-01-07T00:40:32.955Z,2.60
2023-01-07T00:40:55.721Z,2.60
2023-01-07T00:41:18.489Z,2.60
2023-01-07T00:41:41.356Z,2.60
2023-01-07T00:42:23.048Z,2.60
2023-01-07T00:42:58.476Z,2.60
2023-01-07T00:43:21.450Z,2.60
2023-01-07T00:43:44.206Z,2.60
2023-01-07T00:44:10.409Z,2.60
2023-01-07T00:44:33.320Z,2.60
2023-01-07T00:44:56.112Z,2.60
2023-01-07T00:45:18.892Z,2.60
2023-01-07T00:45:41.717Z,2.50
2023-01-07T00:46:04.510Z,2.60
2023-01-07T00:46:27.349Z,2.50
2023-01-07T00:46:50.213Z,2.50
2023-01-07T00:47:12.937Z,2.50
2023-01-07T00:47:35.788Z,2.50
2023-01-07T00:47:58.842Z,2.60
2023-01-07T00:48:23.965Z,2.50
2023-01-07T00:48:46.755Z,2.50
2023-01-07T00:49:10.573Z,2.60
2023-01-07T00:49:34.966Z,2.60
2023-01-07T00:49:57.840Z,2.60
2023-01-07T00:50:20.898Z,2.50
2023-01-07T00:50:43.751Z,2.60
2023-01-07T00:51:06.755Z,2.50
2023-01-07T00:51:29.487Z,2.50
2023-01-07T00:51:52.375Z,2.50
2023-01-07T00:52:17.617Z,2.50
2023-01-07T00:52:40.484Z,2.50
2023-01-07T00:53:03.483Z,2.50
2023-01-07T00:53:26.322Z,2.50
2023-01-07T00:53:49.226Z,2.50
2023-01-07T00:54:11.992Z,2.40
2023-01-07T00:54:34.754Z,2.50
2023-01-07T00:54:59.373Z,2.50
2023-01-07T00:55:22.417Z,2.50
2023-01-07T00:55:45.235Z,2.40
2023-01-07T00:56:08.850Z,2.50
2023-01-07T00:56:33.786Z,2.40
2023-01-07T00:56:56.527Z,2.40
2023-01-07T00:57:19.263Z,2.40
2023-01-07T00:57:42.222Z,2.50
2023-01-07T00:58:05.542Z,2.40
2023-01-07T00:58:28.336Z,2.50
2023-01-07T00:58:51.146Z,2.50
2023-01-07T00:59:13.959Z,2.50
2023-01-07T00:59:37.799Z,2.60
2023-01-07T01:00:01.192Z,2.50
2023-01-07T01:00:24.703Z,2.50
2023-01-07T01:00:47.456Z,2.60
2023-01-07T01:01:10.568Z,2.60
2023-01-07T01:01:33.855Z,2.60
2023-01-07T01:01:56.902Z,2.60
2023-01-07T01:02:22.338Z,2.60
2023-01-07T01:02:45.326Z,2.60
2023-01-07T01:03:08.680Z,2.50
2023-01-07T01:03:31.849Z,2.60
2023-01-07T01:03:54.676Z,2.50
2023-01-07T01:04:17.460Z,2.50
2023-01-07T01:04:41.678Z,2.50
2023-01-07T01:05:04.894Z,2.50
2023-01-07T01:05:27.701Z,2.50
2023-01-07T01:05:50.574Z,2.50
2023-01-07T01:06:15.156Z,2.50
2023-01-07T01:06:38.023Z,2.50
2023-01-07T01:07:00.997Z,2.50
2023-01-07T01:07:23.757Z,2.50
2023-01-07T01:07:46.956Z,2.50
2023-01-07T01:08:10.151Z,2.50
2023-01-07T01:08:32.872Z,2.50
2023-01-07T01:08:55.602Z,2.50
2023-01-07T01:09:20.828Z,2.50
2023-01-07T01:09:43.607Z,2.50
2023-01-07T01:10:08.978Z,2.50
2023-01-07T01:10:31.692Z,2.50
2023-01-07T01:10:54.493Z,2.50
2023-01-07T01:11:17.371Z,2.50
2023-01-07T01:11:40.115Z,2.50
2023-01-07T01:12:02.857Z,2.50
2023-01-07T01:12:28.338Z,2.40
2023-01-07T01:12:51.066Z,2.50
2023-01-07T01:13:18.424Z,2.40
2023-01-07T01:13:41.467Z,2.40
2023-01-07T01:14:04.331Z,2.40
2023-01-07T01:14:27.142Z,2.40
2023-01-07T01:14:50.158Z,2.50
2023-01-07T01:15:14.118Z,2.40
2023-01-07T01:15:36.856Z,2.40
2023-01-07T01:15:59.888Z,2.40
2023-01-07T01:16:22.865Z,2.40
2023-01-07T01:16:48.173Z,2.40
2023-01-07T01:17:10.992Z,2.40
2023-01-07T01:17:33.817Z,2.40
2023-01-07T01:17:56.592Z,2.40
2023-01-07T01:18:19.382Z,2.40
2023-01-07T01:18:42.132Z,2.40
2023-01-07T01:19:05.077Z,2.40
2023-01-07T01:19:27.834Z,2.40
2023-01-07T01:19:53.556Z,2.40
2023-01-07T01:20:16.677Z,2.40
2023-01-07T01:20:39.526Z,2.40
2023-01-07T01:21:04.167Z,2.40
2023-01-07T01:21:27.190Z,2.40
2023-01-07T01:21:50.072Z,2.40
2023-01-07T01:22:12.786Z,2.40
2023-01-07T01:22:35.578Z,2.40
2023-01-07T01:22:58.415Z,2.40
2023-01-07T01:23:21.306Z,2.40
2023-01-07T01:23:44.181Z,2.50
2023-01-07T01:24:07.566Z,2.40
2023-01-07T01:24:30.433Z,2.40
2023-01-07T01:24:53.212Z,2.50
2023-01-07T01:25:16.119Z,2.40
2023-01-07T01:25:38.838Z,2.50
2023-01-07T01:26:05.294Z,2.50
2023-01-07T01:26:28.298Z,2.50
2023-01-07T01:26:51.147Z,2.50
2023-01-07T01:27:14.031Z,2.50
2023-01-07T01:27:36.856Z,2.50
2023-01-07T01:27:59.635Z,2.40
2023-01-07T01:28:22.527Z,2.50
2023-01-07T01:28:45.658Z,2.50
2023-01-07T01:29:08.377Z,2.40
2023-01-07T01:29:31.095Z,2.40
2023-01-07T01:29:53.878Z,2.40
2023-01-07T01:30:16.851Z,2.40
2023-01-07T01:30:40.721Z,2.40
2023-01-07T01:31:03.721Z,2.40
2023-01-07T01:31:26.582Z,2.40
2023-01-07T01:31:50.368Z,2.30
2023-01-07T01:32:13.296Z,2.30
2023-01-07T01:32:36.047Z,2.30
2023-01-07T01:32:59.781Z,2.30
2023-01-07T01:33:22.487Z,2.30
2023-01-07T01:33:45.230Z,2.40
2023-01-07T01:34:08.070Z,2.40
2023-01-07T01:34:30.862Z,2.30
2023-01-07T01:34:55.134Z,2.30
2023-01-07T01:35:17.921Z,2.40
2023-01-07T01:35:41.432Z,2.40
2023-01-07T01:36:05.302Z,2.40
2023-01-07T01:36:28.183Z,2.40
2023-01-07T01:36:51.023Z,2.40
2023-01-07T01:37:13.770Z,2.40
2023-01-07T01:37:36.599Z,2.40
2023-01-07T01:38:00.662Z,2.40
2023-01-07T01:38:23.501Z,2.40
2023-01-07T01:38:46.247Z,2.40
2023-01-07T01:39:09.072Z,2.40
2023-01-07T01:39:34.350Z,2.40
2023-01-07T01:39:57.114Z,2.40
2023-01-07T01:40:19.959Z,2.40
2023-01-07T01:40:42.732Z,2.50
2023-01-07T01:41:05.807Z,2.50
2023-01-07T01:41:28.687Z,2.50
2023-01-07T01:41:51.667Z,2.50
2023-01-07T01:42:14.511Z,2.50
2023-01-07T01:42:37.284Z,2.60
2023-01-07T01:43:00.002Z,2.60
2023-01-07T01:43:34.909Z,2.60
2023-01-07T01:43:57.678Z,2.70
2023-01-07T01:44:38.193Z,2.70
2023-01-07T01:45:01.188Z,2.60
2023-01-07T01:45:23.998Z,2.60
2023-01-07T01:45:46.920Z,2.60
2023-01-07T01:46:13.279Z,2.70
2023-01-07T01:46:38.501Z,2.60
2023-01-07T01:47:01.443Z,2.60
2023-01-07T01:47:29.937Z,2.60
2023-01-07T01:47:55.312Z,2.60
2023-01-07T01:48:18.080Z,2.50
2023-01-07T01:48:43.716Z,2.50
2023-01-07T01:49:08.237Z,2.50
2023-01-07T01:49:32.891Z,2.50
2023-01-07T01:49:59.708Z,2.50
2023-01-07T01:50:24.123Z,2.40
2023-01-07T01:50:46.923Z,2.50
2023-01-07T01:51:12.335Z,2.40
2023-01-07T01:51:37.366Z,2.40
2023-01-07T01:52:02.177Z,2.40
2023-01-07T01:52:28.654Z,2.40
2023-01-07T01:52:53.223Z,2.40
2023-01-07T01:53:18.798Z,2.40
2023-01-07T01:53:41.685Z,2.40
2023-01-07T01:54:05.530Z,2.40
2023-01-07T01:54:28.498Z,2.40
2023-01-07T01:54:53.137Z,2.40
2023-01-07T01:55:17.662Z,2.40
2023-01-07T01:55:43.681Z,2.40
2023-01-07T01:56:09.614Z,2.40
2023-01-07T01:56:33.807Z,2.40
2023-01-07T01:56:56.647Z,2.40
2023-01-07T01:57:19.527Z,2.40
2023-01-07T01:57:42.286Z,2.30
2023-01-07T01:58:06.456Z,2.30
2023-01-07T01:58:37.584Z,2.30
2023-01-07T01:59:01.602Z,2.30
2023-01-07T01:59:25.850Z,2.30
2023-01-07T01:59:49.909Z,2.30
2023-01-07T02:00:16.598Z,2.30
2023-01-07T02:00:39.380Z,2.30
2023-01-07T02:01:03.266Z,2.30
2023-01-07T02:01:26.231Z,2.30
2023-01-07T02:01:49.210Z,2.30
2023-01-07T02:02:12.182Z,2.30
2023-01-07T02:02:39.122Z,2.30
2023-01-07T02:03:01.990Z,2.30
2023-01-07T02:03:25.996Z,2.30
2023-01-07T02:03:48.807Z,2.30
2023-01-07T02:04:15.827Z,2.30
2023-01-07T02:04:38.633Z,2.30
2023-01-07T02:05:03.424Z,2.20
2023-01-07T02:05:27.059Z,2.20
2023-01-07T02:05:49.837Z,2.20
2023-01-07T02:06:20.887Z,2.20
2023-01-07T02:06:45.775Z,2.20
2023-01-07T02:07:10.751Z,2.30
2023-01-07T02:07:33.699Z,2.30
2023-01-07T02:07:56.767Z,2.30
2023-01-07T02:08:22.910Z,2.30
2023-01-07T02:08:45.737Z,2.30
2023-01-07T02:09:08.662Z,2.30
2023-01-07T02:09:31.910Z,2.30
2023-01-07T02:10:00.463Z,2.30
2023-01-07T02:10:24.392Z,2.30
2023-01-07T02:10:48.506Z,2.30
2023-01-07T02:11:18.478Z,2.30
2023-01-07T02:11:44.833Z,2.30
2023-01-07T02:12:12.542Z,2.30
2023-01-07T02:12:44.349Z,2.30
2023-01-07T02:13:25.008Z,2.20
2023-01-07T02:14:02.035Z,2.20
2023-01-07T02:14:38.233Z,2.20
2023-01-07T02:15:09.908Z,2.10
2023-01-07T02:15:37.134Z,2.00
2023-01-07T02:16:05.271Z,2.00
2023-01-07T02:16:31.191Z,2.00
2023-01-07T02:16:57.380Z,2.00
2023-01-07T02:17:22.762Z,2.00
2023-01-07T02:17:53.933Z,1.90
2023-01-07T02:18:42.991Z,2.00
2023-01-07T02:19:23.387Z,2.00
2023-01-07T02:20:25.298Z,2.00
2023-01-07T02:20:55.056Z,2.00
2023-01-07T02:21:24.858Z,2.00
2023-01-07T02:21:51.111Z,2.00
2023-01-07T02:22:19.227Z,2.00
2023-01-07T02:22:53.606Z,2.10
2023-01-07T02:23:43.767Z,2.10
2023-01-07T02:24:35.281Z,2.00
2023-01-07T02:25:21.372Z,2.00
2023-01-07T02:25:57.513Z,2.00
2023-01-07T02:26:40.686Z,2.00
2023-01-07T02:27:16.205Z,2.00
2023-01-07T02:28:01.455Z,2.00
2023-01-07T02:28:41.005Z,2.00
2023-01-07T02:29:28.222Z,2.00
2023-01-07T02:30:23.450Z,2.00
2023-01-07T02:30:56.196Z,2.00
2023-01-07T02:31:42.556Z,2.00
2023-01-07T02:32:17.462Z,2.00
2023-01-07T02:33:00.602Z,1.90
2023-01-07T02:33:43.240Z,1.90
2023-01-07T02:34:06.582Z,1.90
2023-01-07T02:34:33.728Z,1.90
2023-01-07T02:35:02.751Z,1.90
2023-01-07T02:35:32.016Z,1.90
2023-01-07T02:36:42.737Z,1.90
2023-01-07T02:37:07.972Z,1.90
2023-01-07T02:37:34.897Z,1.90
2023-01-07T02:38:01.706Z,1.80
2023-01-07T02:38:29.452Z,1.80
2023-01-07T02:39:00.731Z,1.80
2023-01-07T02:39:31.947Z,1.90
2023-01-07T02:39:58.270Z,1.80
2023-01-07T02:40:23.701Z,1.80
2023-01-07T02:40:51.235Z,1.80
2023-01-07T02:41:18.410Z,1.80
2023-01-07T02:41:45.990Z,1.80
2023-01-07T02:42:12.581Z,1.80
2023-01-07T02:42:38.666Z,1.80
2023-01-07T02:43:06.973Z,1.80
2023-01-07T02:43:35.538Z,1.90
2023-01-07T02:44:02.361Z,1.90
2023-01-07T02:44:33.391Z,1.90
2023-01-07T02:45:01.583Z,1.90
2023-01-07T02:45:27.456Z,2.00
2023-01-07T02:45:53.687Z,2.00
2023-01-07T02:46:20.357Z,2.00
2023-01-07T02:46:46.822Z,2.10
2023-01-07T02:47:12.412Z,2.10
2023-01-07T02:47:37.475Z,2.00
2023-01-07T02:48:01.638Z,2.10
2023-01-07T02:48:24.857Z,2.00
2023-01-07T02:48:47.692Z,2.10
2023-01-07T02:49:15.080Z,2.00
2023-01-07T02:49:38.035Z,2.10
2023-01-07T02:50:00.926Z,2.00
2023-01-07T02:50:23.679Z,2.00
2023-01-07T02:50:46.420Z,2.00
2023-01-07T02:51:09.271Z,2.00
2023-01-07T02:51:34.059Z,1.90
2023-01-07T02:51:56.819Z,1.90
2023-01-07T02:52:21.662Z,1.90
2023-01-07T02:52:45.557Z,1.90
2023-01-07T02:53:09.626Z,1.90
2023-01-07T02:53:33.436Z,1.90
2023-01-07T02:53:56.152Z,1.90
2023-01-07T02:54:21.588Z,1.90
2023-01-07T02:54:44.437Z,1.90
2023-01-07T02:55:08.817Z,1.80
2023-01-07T02:55:37.141Z,1.90
2023-01-07T02:56:07.075Z,1.80
2023-01-07T02:56:36.833Z,1.90
2023-01-07T02:57:20.043Z,1.90
2023-01-07T02:58:11.960Z,1.90
2023-01-07T02:58:51.938Z,1.80
2023-01-07T02:59:42.885Z,1.80
2023-01-07T03:00:12.587Z,1.80
2023-01-07T03:00:48.148Z,1.80
2023-01-07T03:01:27.247Z,1.80
2023-01-07T03:02:34.374Z,1.90
2023-01-07T03:03:13.360Z,1.90
2023-01-07T03:03:44.390Z,1.80
2023-01-07T03:04:15.840Z,1.80
2023-01-07T03:04:47.847Z,1.80
2023-01-07T03:05:32.942Z,1.80
2023-01-07T03:06:02.249Z,1.80
2023-01-07T03:06:36.827Z,1.80
2023-01-07T03:07:08.906Z,1.80
2023-01-07T03:07:40.368Z,1.80
2023-01-07T03:08:11.061Z,1.80
2023-01-07T03:08:46.435Z,1.80
2023-01-07T03:09:12.341Z,1.80
2023-01-07T03:09:40.143Z,1.80
2023-01-07T03:10:04.606Z,1.80
2023-01-07T03:10:30.415Z,1.80
2023-01-07T03:10:57.927Z,1.80
2023-01-07T03:11:20.783Z,1.80
2023-01-07T03:11:48.157Z,1.70
2023-01-07T03:12:13.861Z,1.70
2023-01-07T03:12:39.531Z,1.70
2023-01-07T03:13:04.762Z,1.70
2023-01-07T03:13:29.941Z,1.60
2023-01-07T03:14:01.387Z,1.70
2023-01-07T03:14:26.666Z,1.60
2023-01-07T03:14:50.968Z,1.60
2023-01-07T03:15:15.933Z,1.60
2023-01-07T03:15:40.870Z,1.60
2023-01-07T03:16:05.826Z,1.60
2023-01-07T03:16:31.168Z,1.60
2023-01-07T03:16:55.366Z,1.60
2023-01-07T03:17:20.751Z,1.60
2023-01-07T03:17:44.733Z,1.60
2023-01-07T03:18:11.647Z,1.60
2023-01-07T03:18:36.188Z,1.60
2023-01-07T03:19:00.899Z,1.60
2023-01-07T03:19:25.634Z,1.60
2023-01-07T03:19:49.931Z,1.50
2023-01-07T03:20:13.070Z,1.60
2023-01-07T03:20:37.490Z,1.60
2023-01-07T03:21:01.943Z,1.60
2023-01-07T03:21:24.857Z,1.60
2023-01-07T03:21:48.206Z,1.60
2023-01-07T03:22:10.987Z,1.60
2023-01-07T03:22:33.745Z,1.60
2023-01-07T03:22:56.605Z,1.60
2023-01-07T03:23:21.426Z,1.60
2023-01-07T03:23:47.372Z,1.60
2023-01-07T03:24:10.160Z,1.60
2023-01-07T03:24:33.248Z,1.60
2023-01-07T03:24:57.348Z,1.60
2023-01-07T03:25:20.811Z,1.60
2023-01-07T03:25:45.113Z,1.60
2023-01-07T03:26:08.077Z,1.60
2023-01-07T03:26:32.035Z,1.60
2023-01-07T03:26:55.589Z,1.60
2023-01-07T03:27:18.449Z,1.60
2023-01-07T03:27:41.611Z,1.50
2023-01-07T03:28:04.810Z,1.50
2023-01-07T03:28:30.436Z,1.50
2023-01-07T03:28:53.418Z,1.50
2023-01-07T03:29:16.720Z,1.50
2023-01-07T03:29:39.551Z,1.50
2023-01-07T03:30:03.279Z,1.50
2023-01-07T03:30:26.022Z,1.50
2023-01-07T03:30:48.813Z,1.50
2023-01-07T03:31:12.709Z,1.50
2023-01-07T03:31:35.598Z,1.50
2023-01-07T03:31:59.755Z,1.50
2023-01-07T03:32:25.078Z,1.50
2023-01-07T03:32:51.883Z,1.50
2023-01-07T03:33:18.406Z,1.60
2023-01-07T03:33:43.669Z,1.60
2023-01-07T03:34:08.388Z,1.60
2023-01-07T03:34:31.194Z,1.60
2023-01-07T03:34:54.152Z,1.70
2023-01-07T03:35:17.613Z,1.70
2023-01-07T03:35:40.341Z,1.60
2023-01-07T03:36:03.038Z,1.60
2023-01-07T03:36:28.611Z,1.60
2023-01-07T03:36:55.861Z,1.60
2023-01-07T03:37:20.518Z,1.60
2023-01-07T03:37:43.293Z,1.60
2023-01-07T03:38:06.001Z,1.60
2023-01-07T03:38:30.912Z,1.60
2023-01-07T03:38:53.799Z,1.60
2023-01-07T03:39:16.502Z,1.60
2023-01-07T03:39:39.619Z,1.60
2023-01-07T03:40:03.455Z,1.60
2023-01-07T03:40:26.193Z,1.60
2023-01-07T03:40:48.986Z,1.60
2023-01-07T03:41:31.782Z,1.60
2023-01-07T03:42:13.945Z,1.60
2023-01-07T03:42:42.755Z,1.60
2023-01-07T03:43:05.594Z,1.60
2023-01-07T03:43:28.407Z,1.50
2023-01-07T03:43:51.282Z,1.50
2023-01-07T03:44:14.246Z,1.50
2023-01-07T03:44:37.071Z,1.50
2023-01-07T03:44:59.869Z,1.50
2023-01-07T03:45:23.620Z,1.50
2023-01-07T03:45:46.378Z,1.50
2023-01-07T03:46:09.171Z,1.50
2023-01-07T03:46:31.958Z,1.50
2023-01-07T03:46:54.735Z,1.50
2023-01-07T03:47:17.535Z,1.50
2023-01-07T03:47:42.523Z,1.50
2023-01-07T03:48:05.692Z,1.50
2023-01-07T03:48:29.944Z,1.50
2023-01-07T03:48:52.717Z,1.50
2023-01-07T03:49:15.459Z,1.50
2023-01-07T03:49:38.722Z,1.50
2023-01-07T03:50:02.443Z,1.50
2023-01-07T03:50:25.206Z,1.50
2023-01-07T03:50:47.884Z,1.50
2023-01-07T03:51:10.602Z,1.50
2023-01-07T03:51:33.380Z,1.50
2023-01-07T03:51:56.081Z,1.50
2023-01-07T03:52:18.833Z,1.50
2023-01-07T03:52:41.629Z,1.50
2023-01-07T03:53:04.386Z,1.50
2023-01-07T03:53:27.691Z,1.60
2023-01-07T03:53:50.476Z,1.60
2023-01-07T03:54:15.762Z,1.60
2023-01-07T03:54:38.555Z,1.60
2023-01-07T03:55:01.358Z,1.70
2023-01-07T03:55:24.113Z,1.70
2023-01-07T03:55:46.875Z,1.70
2023-01-07T03:56:09.528Z,1.70
2023-01-07T03:56:32.242Z,1.70
2023-01-07T03:56:54.981Z,1.70
2023-01-07T03:57:17.736Z,1.70
2023-01-07T03:57:40.525Z,1.70
2023-01-07T03:58:05.568Z,1.70
2023-01-07T03:58:28.327Z,1.70
2023-01-07T03:58:51.082Z,1.70
2023-01-07T03:59:15.028Z,1.70
2023-01-07T03:59:38.086Z,1.70
2023-01-07T04:00:00.879Z,1.70
2023-01-07T04:00:23.854Z,1.70
2023-01-07T04:00:46.674Z,1.70
2023-01-07T04:01:09.553Z,1.70
2023-01-07T04:01:35.090Z,1.70
2023-01-07T04:01:58.109Z,1.70
2023-01-07T04:02:20.999Z,1.70
2023-01-07T04:02:43.817Z,1.70
2023-01-07T04:03:06.741Z,1.70
2023-01-07T04:03:31.090Z,1.70
2023-01-07T04:03:53.869Z,1.70
2023-01-07T04:04:19.825Z,1.60
2023-01-07T04:04:42.801Z,1.60
2023-01-07T04:05:06.218Z,1.60
2023-01-07T04:05:29.113Z,1.60
2023-01-07T04:05:51.849Z,1.60
2023-01-07T04:06:14.609Z,1.60
2023-01-07T04:06:37.326Z,1.60
2023-01-07T04:07:00.097Z,1.60
2023-01-07T04:07:23.083Z,1.60
2023-01-07T04:07:45.827Z,1.60
2023-01-07T04:08:08.584Z,1.60
2023-01-07T04:08:31.388Z,1.60
2023-01-07T04:08:55.232Z,1.60
2023-01-07T04:09:22.137Z,1.60
2023-01-07T04:09:47.415Z,1.60
2023-01-07T04:10:10.362Z,1.60
2023-01-07T04:10:33.245Z,1.60
2023-01-07T04:10:56.233Z,1.60
2023-01-07T04:11:18.951Z,1.60
2023-01-07T04:11:41.992Z,1.60
2023-01-07T04:12:04.789Z,1.60
2023-01-07T04:12:27.602Z,1.70
2023-01-07T04:12:50.381Z,1.70
2023-01-07T04:13:13.141Z,1.70
2023-01-07T04:13:38.480Z,1.70
2023-01-07T04:14:01.307Z,1.60
2023-01-07T04:14:24.177Z,1.60
2023-01-07T04:14:47.622Z,1.60
2023-01-07T04:15:12.882Z,1.60
2023-01-07T04:15:35.678Z,1.60
2023-01-07T04:15:58.507Z,1.50
2023-01-07T04:16:21.315Z,1.50
2023-01-07T04:16:44.215Z,1.50
2023-01-07T04:17:06.987Z,1.50
2023-01-07T04:17:29.741Z,1.50
2023-01-07T04:17:52.660Z,1.50
2023-01-07T04:18:15.383Z,1.50
2023-01-07T04:18:39.657Z,1.50
2023-01-07T04:19:02.541Z,1.50
2023-01-07T04:19:25.302Z,1.40
2023-01-07T04:19:48.064Z,1.40
2023-01-07T04:20:14.325Z,1.50
2023-01-07T04:20:37.110Z,1.40
2023-01-07T04:20:59.947Z,1.50
2023-01-07T04:21:22.731Z,1.40
2023-01-07T04:21:45.490Z,1.40
2023-01-07T04:22:09.465Z,1.50
2023-01-07T04:22:33.464Z,1.50
2023-01-07T04:22:56.213Z,1.50
2023-01-07T04:23:18.903Z,1.40
2023-01-07T04:23:41.613Z,1.50
2023-01-07T04:24:04.653Z,1.50
2023-01-07T04:24:27.386Z,1.50
2023-01-07T04:24:50.120Z,1.50
2023-01-07T04:25:13.048Z,1.50
2023-01-07T04:25:35.867Z,1.50
2023-01-07T04:25:58.616Z,1.50
2023-01-07T04:26:21.367Z,1.40
2023-01-07T04:26:44.172Z,1.40
2023-01-07T04:27:08.015Z,1.40
2023-01-07T04:27:31.390Z,1.40
2023-01-07T04:27:54.148Z,1.40
2023-01-07T04:28:16.899Z,1.40
2023-01-07T04:28:39.611Z,1.40
2023-01-07T04:29:02.333Z,1.40
2023-01-07T04:29:26.224Z,1.40
2023-01-07T04:29:50.090Z,1.40
2023-01-07T04:30:13.391Z,1.40
2023-01-07T04:30:38.693Z,1.40
2023-01-07T04:31:01.785Z,1.40
2023-01-07T04:31:24.750Z,1.40
2023-01-07T04:31:47.550Z,1.40
2023-01-07T04:32:10.316Z,1.40
2023-01-07T04:32:33.291Z,1.40
2023-01-07T04:32:56.056Z,1.40
2023-01-07T04:33:18.856Z,1.40
2023-01-07T04:33:43.055Z,1.40
2023-01-07T04:34:05.903Z,1.30
2023-01-07T04:34:28.651Z,1.40
2023-01-07T04:34:52.368Z,1.40
2023-01-07T04:35:15.248Z,1.40
2023-01-07T04:35:39.359Z,1.40
2023-01-07T04:36:02.125Z,1.30
2023-01-07T04:36:24.911Z,1.30
2023-01-07T04:36:47.601Z,1.30
2023-01-07T04:37:10.311Z,1.30
2023-01-07T04:37:33.145Z,1.30
2023-01-07T04:37:58.367Z,1.20
2023-01-07T04:38:21.356Z,1.20
2023-01-07T04:38:44.086Z,1.20
2023-01-07T04:39:06.832Z,1.20
2023-01-07T04:39:29.661Z,1.20
2023-01-07T04:39:52.646Z,1.20
2023-01-07T04:40:15.544Z,1.20
2023-01-07T04:40:38.331Z,1.20
2023-01-07T04:41:01.113Z,1.20
2023-01-07T04:41:26.761Z,1.20
2023-01-07T04:41:49.462Z,1.20
2023-01-07T04:42:12.268Z,1.20
2023-01-07T04:42:35.050Z,1.20
2023-01-07T04:42:57.854Z,1.20
2023-01-07T04:43:20.621Z,1.20
2023-01-07T04:43:43.421Z,1.20
2023-01-07T04:44:06.606Z,1.20
2023-01-07T04:44:29.379Z,1.30
2023-01-07T04:44:54.560Z,1.20
2023-01-07T04:45:17.382Z,1.30
2023-01-07T04:45:40.107Z,1.30
2023-01-07T04:46:03.426Z,1.30
2023-01-07T04:46:26.197Z,1.30
2023-01-07T04:46:48.971Z,1.30
2023-01-07T04:47:11.700Z,1.30
2023-01-07T04:47:34.608Z,1.20
2023-01-07T04:47:57.404Z,1.20
2023-01-07T04:48:20.201Z,1.20
2023-01-07T04:48:44.443Z,1.20
2023-01-07T04:49:09.101Z,1.20
2023-01-07T04:49:32.936Z,1.20
2023-01-07T04:49:55.691Z,1.20
2023-01-07T04:50:18.639Z,1.20
2023-01-07T04:50:41.441Z,1.20
2023-01-07T04:51:04.405Z,1.20
2023-01-07T04:51:27.192Z,1.20
2023-01-07T04:51:49.946Z,1.20
2023-01-07T04:52:12.848Z,1.20
2023-01-07T04:52:35.587Z,1.20
2023-01-07T04:52:58.317Z,1.20
2023-01-07T04:53:21.107Z,1.30
2023-01-07T04:53:43.927Z,1.30
2023-01-07T04:54:06.912Z,1.30
2023-01-07T04:54:29.689Z,1.30
2023-01-07T04:54:52.497Z,1.30
2023-01-07T04:55:15.392Z,1.30
2023-01-07T04:55:38.222Z,1.30
2023-01-07T04:56:00.969Z,1.40
2023-01-07T04:56:23.690Z,1.40
2023-01-07T04:56:46.416Z,1.40
2023-01-07T04:57:09.963Z,1.30
2023-01-07T04:57:32.747Z,1.30
2023-01-07T04:57:55.387Z,1.40
2023-01-07T04:58:18.097Z,1.40
2023-01-07T04:58:40.971Z,1.30
2023-01-07T04:59:06.067Z,1.30
2023-01-07T04:59:28.882Z,1.30
2023-01-07T04:59:51.628Z,1.30
2023-01-07T05:00:14.914Z,1.30
2023-01-07T05:00:37.716Z,1.30
2023-01-07T05:01:07.225Z,1.30
2023-01-07T05:01:31.249Z,1.30
2023-01-07T05:01:54.324Z,1.30
2023-01-07T05:02:19.428Z,1.30
2023-01-07T05:02:42.213Z,1.20
2023-01-07T05:03:04.951Z,1.20
2023-01-07T05:03:27.787Z,1.20
2023-01-07T05:03:52.076Z,1.20
2023-01-07T05:04:14.922Z,1.30
2023-01-07T05:04:37.741Z,1.30
2023-01-07T05:05:00.630Z,1.30
2023-01-07T05:05:23.393Z,1.30
2023-01-07T05:05:46.748Z,1.30
2023-01-07T05:06:10.257Z,1.40
2023-01-07T05:06:34.100Z,1.40
2023-01-07T05:06:56.816Z,1.40
2023-01-07T05:07:19.516Z,1.40
2023-01-07T05:07:42.251Z,1.40
2023-01-07T05:08:05.590Z,1.40
2023-01-07T05:08:28.344Z,1.50
2023-01-07T05:08:54.246Z,1.50
2023-01-07T05:09:17.009Z,1.40
2023-01-07T05:09:39.766Z,1.40
2023-01-07T05:10:02.552Z,1.40
2023-01-07T05:10:25.287Z,1.40
2023-01-07T05:10:49.817Z,1.40
2023-01-07T05:11:12.653Z,1.40
2023-01-07T05:11:35.451Z,1.50
2023-01-07T05:11:58.231Z,1.50
2023-01-07T05:12:20.966Z,1.50
2023-01-07T05:12:43.704Z,1.50
2023-01-07T05:13:07.183Z,1.40
2023-01-07T05:13:31.890Z,1.40
2023-01-07T05:13:55.055Z,1.40
2023-01-07T05:14:18.051Z,1.40
2023-01-07T05:14:40.820Z,1.40
2023-01-07T05:15:03.618Z,1.40
2023-01-07T05:15:26.365Z,1.40
2023-01-07T05:15:49.141Z,1.40
2023-01-07T05:16:11.922Z,1.40
2023-01-07T05:16:34.837Z,1.30
2023-01-07T05:16:57.675Z,1.30
2023-01-07T05:17:20.506Z,1.30
2023-01-07T05:17:43.247Z,1.30
2023-01-07T05:18:08.487Z,1.30
2023-01-07T05:18:31.215Z,1.30
2023-01-07T05:18:55.486Z,1.30
2023-01-07T05:19:19.245Z,1.30
2023-01-07T05:19:41.944Z,1.30
2023-01-07T05:20:07.936Z,1.30
2023-01-07T05:20:30.951Z,1.20
2023-01-07T05:20:56.486Z,1.20
2023-01-07T05:21:19.223Z,1.30
2023-01-07T05:21:41.993Z,1.30
2023-01-07T05:22:04.945Z,1.20
2023-01-07T05:22:27.707Z,1.20
2023-01-07T05:22:50.437Z,1.20
2023-01-07T05:23:13.162Z,1.20
2023-01-07T05:23:35.905Z,1.10
2023-01-07T05:23:58.716Z,1.10
2023-01-07T05:24:21.425Z,1.10
2023-01-07T05:24:47.352Z,1.10
2023-01-07T05:25:10.495Z,1.10
2023-01-07T05:25:38.417Z,1.10
2023-01-07T05:26:01.148Z,1.10
2023-01-07T05:26:23.865Z,1.10
2023-01-07T05:26:47.256Z,1.10
2023-01-07T05:27:10.195Z,1.10
2023-01-07T05:27:32.969Z,1.00
2023-01-07T05:27:55.816Z,1.00
2023-01-07T05:28:18.639Z,1.00
2023-01-07T05:28:41.472Z,1.00
2023-01-07T05:29:04.352Z,1.00
2023-01-07T05:29:27.161Z,1.00
2023-01-07T05:29:49.931Z,1.00
2023-01-07T05:30:13.026Z,1.00
2023-01-07T05:30:39.669Z,1.00
2023-01-07T05:31:02.637Z,1.00
2023-01-07T05:31:25.548Z,1.00